Tuesday, October 21, 2014, 11:09 PM EDT

KSEG, Selinsgrove Penn Valley Airport

Location: Selinsgrove, PA, United States Lat: 40.817
Local Time: 11:09 PM EDT ( 3:09 GMT) Lon: -76.867
Time Zone: US/Eastern Elev: 449 ft

Show me the last for .
Show Decoded

2014-10-21 22:53 METAR KSEG 220253Z AUTO 00000KT 10SM FEW040 BKN060 11/08 A2995 RMK AO2 SLP143
                 T01060083 52018 =
2014-10-21 21:53 METAR KSEG 220153Z AUTO 00000KT 10SM FEW045 11/08 A2993 RMK AO2 SLP137 T01060083
                 =
2014-10-21 20:53 METAR KSEG 220053Z AUTO 34004KT 10SM FEW060 BKN110 12/08 A2991 RMK AO2 SLP129
                 T01170083 =
2014-10-21 19:53 METAR KSEG 212353Z AUTO 36003KT 10SM OVC110 13/09 A2990 RMK AO2 SLP124 T01280089
                 10172 20122 51018 =
2014-10-21 18:53 METAR KSEG 212253Z AUTO 00000KT 10SM FEW034 OVC100 13/09 A2988 RMK AO2 SLP119
                 T01280089 =
2014-10-21 17:53 METAR KSEG 212153Z AUTO 05003KT 10SM OVC100 15/08 A2986 RMK AO2 LTG DSNT W
                 SLP111 T01500083 =
2014-10-21 16:53 METAR KSEG 212053Z AUTO 04004KT 10SM SCT055 OVC100 17/08 A2984 RMK AO2 SLP105
                 T01670083 55002 =
2014-10-21 15:53 METAR KSEG 211953Z AUTO 02006KT 10SM BKN033 17/08 A2984 RMK AO2 SLP103 T01720083
                 =
2014-10-21 14:53 METAR KSEG 211853Z AUTO 31004KT 10SM SCT036 OVC048 16/08 A2984 RMK AO2 SLP104
                 T01560083 =
2014-10-21 14:10 METAR KSEG 211810Z AUTO 00000KT 10SM SCT028 OVC033 15/09 A2984 RMK AO2 T01500089
                 =
2014-10-21 13:53 METAR KSEG 211753Z AUTO 00000KT 10SM BKN029 BKN036 OVC080 15/09 A2985 RMK AO2
                 SLP106 T01500089 10156 20083 58007 =
2014-10-21 13:44 METAR KSEG 211744Z AUTO 08003KT 10SM BKN028 OVC075 15/09 A2985 RMK AO2 T01500094
                 =
2014-10-21 12:53 METAR KSEG 211653Z AUTO 00000KT 10SM FEW022 SCT026 OVC050 14/09 A2986 RMK AO2
                 SLP113 T01440089 =
2014-10-21 11:53 METAR KSEG 211553Z AUTO 00000KT 10SM BKN050 OVC070 13/09 A2987 RMK AO2 SLP116
                 T01330094 =
2014-10-21 10:53 METAR KSEG 211453Z AUTO 00000KT 9SM FEW013 BKN046 OVC075 13/09 A2987 RMK AO2
                 SLP115 T01280094 50003 =
2014-10-21 08:53 METAR KSEG 211253Z AUTO 00000KT 9SM OVC075 11/09 A2987 RMK AO2 SLP115 T01110089
                 =
2014-10-21 07:53 METAR KSEG 211153Z AUTO 00000KT 7SM FEW065 SCT080 08/07 A2986 RMK AO2 SLP112
                 T00830072 10111 20078 53004 =
2014-10-21 06:53 METAR KSEG 211053Z AUTO 00000KT 10SM BKN075 09/08 A2985 RMK AO2 SLP108 T00890078
                 =
2014-10-21 05:53 METAR KSEG 210953Z AUTO 00000KT 10SM SCT048 OVC085 10/08 A2985 RMK AO2 SLP108
                 T01000078 =
2014-10-21 04:53 METAR KSEG 210853Z AUTO 00000KT 10SM FEW055 OVC075 11/08 A2985 RMK AO2 SLP108
                 T01060083 56010 =
2014-10-21 03:53 METAR KSEG 210753Z AUTO 00000KT 10SM BKN055 OVC070 11/08 A2986 RMK AO2 SLP109
                 T01110078 =
2014-10-21 02:53 METAR KSEG 210653Z AUTO 00000KT 10SM SCT055 BKN070 OVC080 11/07 A2987 RMK AO2
                 SLP115 T01110072 =
2014-10-21 01:53 METAR KSEG 210553Z AUTO 00000KT 10SM FEW055 BKN090 OVC110 11/07 A2988 RMK AO2
                 RAE07 SLP119 P0000 60000 T01110067 10139 20100 58013 =
2014-10-21 00:53 METAR KSEG 210453Z AUTO 00000KT 10SM -RA BKN065 OVC080 11/08 A2990 RMK AO2 RAB38
                 SLP125 P0000 T01060078 401610017 =
2014-10-20 23:53 METAR KSEG 210353Z AUTO 00000KT 10SM FEW085 OVC110 10/07 A2990 RMK AO2 SLP127
                 T01000072 =

Support USWX by starting your Amazon purchase here.